METAR Data
IDs: Format: Raw Decoded Include TAF

Data at: 0808 UTC 08 May 2021

NZAA 080800Z AUTO 03010KT 9999 FEW023/// BKN036/// OVC047/// 18/15 Q1029 NOSIG
NZAA 080730Z AUTO 03011KT 9999 FEW030/// BKN040/// 18/15 Q1029 NOSIG
NZAA 080700Z AUTO 04009KT 9999 BKN046/// BKN055/// 18/15 Q1028 NOSIG
NZAA 080630Z AUTO 05010KT 9999 NCD 18/15 Q1028 NOSIG
NZAA 080600Z AUTO 04012KT 9999 NCD 18/15 Q1028 NOSIG
NZAA 080530Z AUTO 04011KT 9999 SCT039/// 18/15 Q1028 NOSIG

TAF NZAA 080458Z 0806/0906 04015KT 9999 -SHRA SCT025 BKN045
  BECMG 0808/0810 01005KT